sensor_id;sensor_type;location;lat;lon;timestamp;P1;durP1;ratioP1;P2;durP2;ratioP2
5819;SDS011;2936;47.348;9.640;2022-12-18T00:02:23;63.65;;;29.00;;
5819;SDS011;2936;47.348;9.640;2022-12-18T00:04:50;53.40;;;27.08;;
5819;SDS011;2936;47.348;9.640;2022-12-18T00:07:19;58.30;;;28.23;;
5819;SDS011;2936;47.348;9.640;2022-12-18T00:09:46;59.30;;;27.88;;
5819;SDS011;2936;47.348;9.640;2022-12-18T00:12:13;53.35;;;26.23;;
5819;SDS011;2936;47.348;9.640;2022-12-18T00:14:40;59.60;;;26.23;;
5819;SDS011;2936;47.348;9.640;2022-12-18T00:17:10;57.10;;;25.73;;
5819;SDS011;2936;47.348;9.640;2022-12-18T00:19:38;55.08;;;26.70;;
5819;SDS011;2936;47.348;9.640;2022-12-18T00:22:05;53.17;;;24.15;;
5819;SDS011;2936;47.348;9.640;2022-12-18T00:24:34;56.40;;;26.15;;
5819;SDS011;2936;47.348;9.640;2022-12-18T00:27:01;49.92;;;24.67;;
5819;SDS011;2936;47.348;9.640;2022-12-18T00:29:28;52.28;;;26.63;;
5819;SDS011;2936;47.348;9.640;2022-12-18T00:31:55;50.60;;;26.27;;
5819;SDS011;2936;47.348;9.640;2022-12-18T00:34:22;53.28;;;24.02;;
5819;SDS011;2936;47.348;9.640;2022-12-18T00:36:50;55.20;;;26.65;;
5819;SDS011;2936;47.348;9.640;2022-12-18T00:39:17;59.17;;;25.33;;
5819;SDS011;2936;47.348;9.640;2022-12-18T00:41:45;55.42;;;27.02;;
5819;SDS011;2936;47.348;9.640;2022-12-18T00:44:30;58.33;;;27.42;;
5819;SDS011;2936;47.348;9.640;2022-12-18T00:46:57;52.25;;;26.38;;
5819;SDS011;2936;47.348;9.640;2022-12-18T00:49:25;56.00;;;24.63;;
5819;SDS011;2936;47.348;9.640;2022-12-18T00:51:52;53.92;;;24.67;;
5819;SDS011;2936;47.348;9.640;2022-12-18T00:54:23;53.53;;;26.30;;
5819;SDS011;2936;47.348;9.640;2022-12-18T00:56:51;65.90;;;25.77;;
5819;SDS011;2936;47.348;9.640;2022-12-18T00:59:20;53.80;;;25.95;;
5819;SDS011;2936;47.348;9.640;2022-12-18T01:01:47;56.20;;;25.75;;
5819;SDS011;2936;47.348;9.640;2022-12-18T01:04:14;51.10;;;26.90;;
5819;SDS011;2936;47.348;9.640;2022-12-18T01:06:42;59.17;;;27.55;;
5819;SDS011;2936;47.348;9.640;2022-12-18T01:09:09;57.75;;;26.33;;
5819;SDS011;2936;47.348;9.640;2022-12-18T01:11:36;55.17;;;24.13;;
5819;SDS011;2936;47.348;9.640;2022-12-18T01:14:05;57.75;;;26.45;;
5819;SDS011;2936;47.348;9.640;2022-12-18T01:16:32;53.88;;;24.55;;
5819;SDS011;2936;47.348;9.640;2022-12-18T01:19:00;58.17;;;26.60;;
5819;SDS011;2936;47.348;9.640;2022-12-18T01:21:27;47.17;;;23.25;;
5819;SDS011;2936;47.348;9.640;2022-12-18T01:23:55;50.78;;;24.42;;
5819;SDS011;2936;47.348;9.640;2022-12-18T01:26:23;52.88;;;24.08;;
5819;SDS011;2936;47.348;9.640;2022-12-18T01:28:50;45.42;;;21.75;;
5819;SDS011;2936;47.348;9.640;2022-12-18T01:31:19;50.00;;;23.77;;
5819;SDS011;2936;47.348;9.640;2022-12-18T01:33:46;44.85;;;22.08;;
5819;SDS011;2936;47.348;9.640;2022-12-18T01:36:15;48.22;;;21.00;;
5819;SDS011;2936;47.348;9.640;2022-12-18T01:38:42;44.50;;;22.55;;
5819;SDS011;2936;47.348;9.640;2022-12-18T01:41:09;50.90;;;21.52;;
5819;SDS011;2936;47.348;9.640;2022-12-18T01:43:41;51.78;;;24.02;;
5819;SDS011;2936;47.348;9.640;2022-12-18T01:46:08;60.92;;;22.83;;
5819;SDS011;2936;47.348;9.640;2022-12-18T01:48:36;51.30;;;23.33;;
5819;SDS011;2936;47.348;9.640;2022-12-18T01:51:04;50.53;;;26.02;;
5819;SDS011;2936;47.348;9.640;2022-12-18T01:53:31;49.17;;;22.60;;
5819;SDS011;2936;47.348;9.640;2022-12-18T01:55:58;54.25;;;25.38;;
5819;SDS011;2936;47.348;9.640;2022-12-18T01:58:27;47.60;;;24.95;;
5819;SDS011;2936;47.348;9.640;2022-12-18T02:00:57;55.85;;;24.80;;
5819;SDS011;2936;47.348;9.640;2022-12-18T02:03:24;54.70;;;23.00;;
5819;SDS011;2936;47.348;9.640;2022-12-18T02:05:54;61.55;;;26.38;;
5819;SDS011;2936;47.348;9.640;2022-12-18T02:08:25;61.42;;;26.52;;
5819;SDS011;2936;47.348;9.640;2022-12-18T02:10:57;56.53;;;26.98;;
5819;SDS011;2936;47.348;9.640;2022-12-18T02:13:32;62.78;;;24.75;;
5819;SDS011;2936;47.348;9.640;2022-12-18T02:16:04;60.63;;;25.27;;
5819;SDS011;2936;47.348;9.640;2022-12-18T02:18:33;68.90;;;24.27;;
5819;SDS011;2936;47.348;9.640;2022-12-18T02:21:04;58.28;;;23.77;;
5819;SDS011;2936;47.348;9.640;2022-12-18T02:23:40;69.10;;;26.58;;
5819;SDS011;2936;47.348;9.640;2022-12-18T02:26:13;62.40;;;26.52;;
5819;SDS011;2936;47.348;9.640;2022-12-18T02:28:45;53.17;;;25.70;;
5819;SDS011;2936;47.348;9.640;2022-12-18T02:31:14;67.05;;;27.92;;
5819;SDS011;2936;47.348;9.640;2022-12-18T02:33:43;55.10;;;23.77;;
5819;SDS011;2936;47.348;9.640;2022-12-18T02:36:11;59.35;;;26.75;;
5819;SDS011;2936;47.348;9.640;2022-12-18T02:38:39;56.60;;;25.77;;
5819;SDS011;2936;47.348;9.640;2022-12-18T02:41:08;59.80;;;24.98;;
5819;SDS011;2936;47.348;9.640;2022-12-18T02:43:36;68.00;;;25.02;;
5819;SDS011;2936;47.348;9.640;2022-12-18T02:48:46;55.90;;;25.10;;
5819;SDS011;2936;47.348;9.640;2022-12-18T02:51:16;56.50;;;26.25;;
5819;SDS011;2936;47.348;9.640;2022-12-18T02:53:45;64.30;;;26.83;;
5819;SDS011;2936;47.348;9.640;2022-12-18T02:56:15;58.05;;;25.02;;
5819;SDS011;2936;47.348;9.640;2022-12-18T02:58:46;61.65;;;26.10;;
5819;SDS011;2936;47.348;9.640;2022-12-18T03:01:16;57.65;;;25.05;;
5819;SDS011;2936;47.348;9.640;2022-12-18T03:03:47;57.78;;;25.15;;
5819;SDS011;2936;47.348;9.640;2022-12-18T03:06:18;56.63;;;23.77;;
5819;SDS011;2936;47.348;9.640;2022-12-18T03:08:48;60.95;;;25.10;;
5819;SDS011;2936;47.348;9.640;2022-12-18T03:11:16;63.63;;;26.50;;
5819;SDS011;2936;47.348;9.640;2022-12-18T03:14:05;63.65;;;25.80;;
5819;SDS011;2936;47.348;9.640;2022-12-18T03:16:33;61.75;;;28.08;;
5819;SDS011;2936;47.348;9.640;2022-12-18T03:19:02;61.70;;;26.77;;
5819;SDS011;2936;47.348;9.640;2022-12-18T03:21:32;59.47;;;26.75;;
5819;SDS011;2936;47.348;9.640;2022-12-18T03:24:00;61.00;;;26.38;;
5819;SDS011;2936;47.348;9.640;2022-12-18T03:26:30;68.20;;;26.88;;
5819;SDS011;2936;47.348;9.640;2022-12-18T03:28:59;72.80;;;26.42;;
5819;SDS011;2936;47.348;9.640;2022-12-18T03:31:28;68.28;;;27.27;;
5819;SDS011;2936;47.348;9.640;2022-12-18T03:34:05;64.45;;;27.58;;
5819;SDS011;2936;47.348;9.640;2022-12-18T03:36:35;63.83;;;27.70;;
5819;SDS011;2936;47.348;9.640;2022-12-18T03:39:02;66.90;;;26.45;;
5819;SDS011;2936;47.348;9.640;2022-12-18T03:41:31;83.05;;;31.17;;
5819;SDS011;2936;47.348;9.640;2022-12-18T03:43:59;73.80;;;28.40;;
5819;SDS011;2936;47.348;9.640;2022-12-18T03:46:30;71.15;;;29.73;;
5819;SDS011;2936;47.348;9.640;2022-12-18T03:49:01;69.72;;;28.08;;
5819;SDS011;2936;47.348;9.640;2022-12-18T03:51:31;61.00;;;27.65;;
5819;SDS011;2936;47.348;9.640;2022-12-18T03:54:03;79.00;;;28.70;;
5819;SDS011;2936;47.348;9.640;2022-12-18T03:56:32;81.53;;;30.50;;
5819;SDS011;2936;47.348;9.640;2022-12-18T03:59:00;82.00;;;30.05;;
5819;SDS011;2936;47.348;9.640;2022-12-18T04:01:30;69.00;;;29.02;;
5819;SDS011;2936;47.348;9.640;2022-12-18T04:03:58;87.60;;;30.52;;
5819;SDS011;2936;47.348;9.640;2022-12-18T04:06:26;69.05;;;28.42;;
5819;SDS011;2936;47.348;9.640;2022-12-18T04:08:54;69.15;;;28.23;;
5819;SDS011;2936;47.348;9.640;2022-12-18T04:11:21;73.43;;;27.13;;
5819;SDS011;2936;47.348;9.640;2022-12-18T04:13:49;69.60;;;28.42;;
5819;SDS011;2936;47.348;9.640;2022-12-18T04:16:16;67.72;;;26.00;;
5819;SDS011;2936;47.348;9.640;2022-12-18T04:18:44;68.63;;;26.33;;
5819;SDS011;2936;47.348;9.640;2022-12-18T04:21:12;61.63;;;25.90;;
5819;SDS011;2936;47.348;9.640;2022-12-18T04:23:39;64.20;;;25.95;;
5819;SDS011;2936;47.348;9.640;2022-12-18T04:26:06;66.10;;;27.33;;
5819;SDS011;2936;47.348;9.640;2022-12-18T04:28:33;72.78;;;26.75;;
5819;SDS011;2936;47.348;9.640;2022-12-18T04:31:01;64.00;;;26.27;;
5819;SDS011;2936;47.348;9.640;2022-12-18T04:33:28;67.18;;;27.58;;
5819;SDS011;2936;47.348;9.640;2022-12-18T04:35:56;65.35;;;26.13;;
5819;SDS011;2936;47.348;9.640;2022-12-18T04:38:24;74.20;;;28.52;;
5819;SDS011;2936;47.348;9.640;2022-12-18T04:40:51;61.05;;;27.05;;
5819;SDS011;2936;47.348;9.640;2022-12-18T04:43:18;68.00;;;26.40;;
5819;SDS011;2936;47.348;9.640;2022-12-18T04:45:45;73.95;;;27.52;;
5819;SDS011;2936;47.348;9.640;2022-12-18T04:48:12;75.72;;;27.15;;
5819;SDS011;2936;47.348;9.640;2022-12-18T04:50:40;77.32;;;26.65;;
5819;SDS011;2936;47.348;9.640;2022-12-18T04:53:08;70.78;;;28.98;;
5819;SDS011;2936;47.348;9.640;2022-12-18T04:55:35;63.70;;;24.23;;
5819;SDS011;2936;47.348;9.640;2022-12-18T04:58:03;70.50;;;25.98;;
5819;SDS011;2936;47.348;9.640;2022-12-18T05:00:30;66.03;;;27.38;;
5819;SDS011;2936;47.348;9.640;2022-12-18T05:02:57;72.45;;;26.90;;
5819;SDS011;2936;47.348;9.640;2022-12-18T05:05:24;71.55;;;25.85;;
5819;SDS011;2936;47.348;9.640;2022-12-18T05:07:52;71.68;;;26.30;;
5819;SDS011;2936;47.348;9.640;2022-12-18T05:10:20;70.88;;;26.80;;
5819;SDS011;2936;47.348;9.640;2022-12-18T05:12:47;65.50;;;25.92;;
5819;SDS011;2936;47.348;9.640;2022-12-18T05:15:24;67.50;;;24.02;;
5819;SDS011;2936;47.348;9.640;2022-12-18T05:17:51;57.13;;;21.20;;
5819;SDS011;2936;47.348;9.640;2022-12-18T05:20:18;52.10;;;22.10;;
5819;SDS011;2936;47.348;9.640;2022-12-18T05:22:46;51.88;;;22.00;;
5819;SDS011;2936;47.348;9.640;2022-12-18T05:25:13;52.08;;;20.65;;
5819;SDS011;2936;47.348;9.640;2022-12-18T05:27:41;53.72;;;21.55;;
5819;SDS011;2936;47.348;9.640;2022-12-18T05:30:09;44.00;;;20.60;;
5819;SDS011;2936;47.348;9.640;2022-12-18T05:32:37;51.67;;;22.50;;
5819;SDS011;2936;47.348;9.640;2022-12-18T05:35:05;51.47;;;22.98;;
5819;SDS011;2936;47.348;9.640;2022-12-18T05:37:33;47.53;;;21.20;;
5819;SDS011;2936;47.348;9.640;2022-12-18T05:40:00;55.13;;;24.50;;
5819;SDS011;2936;47.348;9.640;2022-12-18T05:42:27;56.38;;;24.48;;
5819;SDS011;2936;47.348;9.640;2022-12-18T05:44:56;50.22;;;20.90;;
5819;SDS011;2936;47.348;9.640;2022-12-18T05:47:23;47.40;;;21.27;;
5819;SDS011;2936;47.348;9.640;2022-12-18T05:49:50;42.35;;;19.60;;
5819;SDS011;2936;47.348;9.640;2022-12-18T05:52:18;53.20;;;22.58;;
5819;SDS011;2936;47.348;9.640;2022-12-18T05:54:45;46.80;;;20.40;;
5819;SDS011;2936;47.348;9.640;2022-12-18T05:57:12;48.50;;;21.27;;
5819;SDS011;2936;47.348;9.640;2022-12-18T05:59:39;54.72;;;22.95;;
5819;SDS011;2936;47.348;9.640;2022-12-18T06:02:08;51.80;;;20.90;;
5819;SDS011;2936;47.348;9.640;2022-12-18T06:04:35;47.20;;;21.20;;
5819;SDS011;2936;47.348;9.640;2022-12-18T06:07:02;44.75;;;18.73;;
5819;SDS011;2936;47.348;9.640;2022-12-18T06:09:30;41.60;;;19.10;;
5819;SDS011;2936;47.348;9.640;2022-12-18T06:11:58;53.42;;;19.92;;
5819;SDS011;2936;47.348;9.640;2022-12-18T06:14:26;42.40;;;19.38;;
5819;SDS011;2936;47.348;9.640;2022-12-18T06:16:54;37.10;;;16.75;;
5819;SDS011;2936;47.348;9.640;2022-12-18T06:19:22;43.58;;;19.15;;
5819;SDS011;2936;47.348;9.640;2022-12-18T06:21:50;46.22;;;20.20;;
5819;SDS011;2936;47.348;9.640;2022-12-18T06:24:18;45.72;;;19.13;;
5819;SDS011;2936;47.348;9.640;2022-12-18T06:26:45;40.03;;;18.13;;
5819;SDS011;2936;47.348;9.640;2022-12-18T06:29:12;46.45;;;21.17;;
5819;SDS011;2936;47.348;9.640;2022-12-18T06:31:39;41.45;;;17.92;;
5819;SDS011;2936;47.348;9.640;2022-12-18T06:34:07;53.60;;;21.60;;
5819;SDS011;2936;47.348;9.640;2022-12-18T06:36:35;44.58;;;19.73;;
5819;SDS011;2936;47.348;9.640;2022-12-18T06:39:02;41.53;;;19.55;;
5819;SDS011;2936;47.348;9.640;2022-12-18T06:41:29;40.78;;;18.83;;
5819;SDS011;2936;47.348;9.640;2022-12-18T06:43:57;40.35;;;17.05;;
5819;SDS011;2936;47.348;9.640;2022-12-18T06:46:24;40.40;;;16.75;;
5819;SDS011;2936;47.348;9.640;2022-12-18T06:48:51;42.90;;;18.80;;
5819;SDS011;2936;47.348;9.640;2022-12-18T06:51:19;44.75;;;18.05;;
5819;SDS011;2936;47.348;9.640;2022-12-18T06:53:48;40.33;;;18.83;;
5819;SDS011;2936;47.348;9.640;2022-12-18T06:56:15;38.45;;;19.50;;
5819;SDS011;2936;47.348;9.640;2022-12-18T06:58:43;34.10;;;18.88;;
5819;SDS011;2936;47.348;9.640;2022-12-18T07:01:10;38.13;;;18.25;;
5819;SDS011;2936;47.348;9.640;2022-12-18T07:03:38;39.83;;;17.42;;
5819;SDS011;2936;47.348;9.640;2022-12-18T07:06:06;42.53;;;19.83;;
5819;SDS011;2936;47.348;9.640;2022-12-18T07:08:40;34.67;;;17.42;;
5819;SDS011;2936;47.348;9.640;2022-12-18T07:11:09;33.78;;;15.18;;
5819;SDS011;2936;47.348;9.640;2022-12-18T07:13:36;35.30;;;17.25;;
5819;SDS011;2936;47.348;9.640;2022-12-18T07:16:07;45.30;;;19.50;;
5819;SDS011;2936;47.348;9.640;2022-12-18T07:18:35;34.63;;;17.52;;
5819;SDS011;2936;47.348;9.640;2022-12-18T07:21:02;39.17;;;16.88;;
5819;SDS011;2936;47.348;9.640;2022-12-18T07:23:31;41.72;;;18.52;;
5819;SDS011;2936;47.348;9.640;2022-12-18T07:26:00;39.90;;;19.02;;
5819;SDS011;2936;47.348;9.640;2022-12-18T07:28:29;40.53;;;18.33;;
5819;SDS011;2936;47.348;9.640;2022-12-18T07:30:56;42.05;;;18.75;;
5819;SDS011;2936;47.348;9.640;2022-12-18T07:33:24;44.20;;;20.17;;
5819;SDS011;2936;47.348;9.640;2022-12-18T07:35:51;48.78;;;20.58;;
5819;SDS011;2936;47.348;9.640;2022-12-18T07:38:18;42.88;;;19.98;;
5819;SDS011;2936;47.348;9.640;2022-12-18T07:40:45;49.28;;;20.77;;
5819;SDS011;2936;47.348;9.640;2022-12-18T07:43:13;44.88;;;19.80;;
5819;SDS011;2936;47.348;9.640;2022-12-18T07:45:41;39.72;;;18.85;;
5819;SDS011;2936;47.348;9.640;2022-12-18T07:48:08;50.72;;;19.70;;
5819;SDS011;2936;47.348;9.640;2022-12-18T07:50:36;46.28;;;19.85;;
5819;SDS011;2936;47.348;9.640;2022-12-18T07:53:03;43.90;;;18.50;;
5819;SDS011;2936;47.348;9.640;2022-12-18T07:55:30;48.50;;;20.67;;
5819;SDS011;2936;47.348;9.640;2022-12-18T07:58:00;48.55;;;20.52;;
5819;SDS011;2936;47.348;9.640;2022-12-18T08:00:28;41.55;;;18.35;;
5819;SDS011;2936;47.348;9.640;2022-12-18T08:02:56;45.63;;;19.92;;
5819;SDS011;2936;47.348;9.640;2022-12-18T08:05:24;45.40;;;18.95;;
5819;SDS011;2936;47.348;9.640;2022-12-18T08:07:51;42.72;;;18.88;;
5819;SDS011;2936;47.348;9.640;2022-12-18T08:10:18;44.75;;;18.48;;
5819;SDS011;2936;47.348;9.640;2022-12-18T08:12:48;46.50;;;20.30;;
5819;SDS011;2936;47.348;9.640;2022-12-18T08:15:15;47.65;;;19.58;;
5819;SDS011;2936;47.348;9.640;2022-12-18T08:17:43;44.38;;;18.70;;
5819;SDS011;2936;47.348;9.640;2022-12-18T08:20:12;49.25;;;21.50;;
5819;SDS011;2936;47.348;9.640;2022-12-18T08:22:40;44.03;;;19.30;;
5819;SDS011;2936;47.348;9.640;2022-12-18T08:25:07;42.38;;;18.90;;
5819;SDS011;2936;47.348;9.640;2022-12-18T08:27:35;50.58;;;21.73;;
5819;SDS011;2936;47.348;9.640;2022-12-18T08:30:02;55.08;;;21.45;;
5819;SDS011;2936;47.348;9.640;2022-12-18T08:32:30;61.25;;;22.48;;
5819;SDS011;2936;47.348;9.640;2022-12-18T08:34:57;49.47;;;22.77;;
5819;SDS011;2936;47.348;9.640;2022-12-18T08:37:26;48.95;;;20.85;;
5819;SDS011;2936;47.348;9.640;2022-12-18T08:39:53;47.42;;;22.45;;
5819;SDS011;2936;47.348;9.640;2022-12-18T08:42:20;50.25;;;21.70;;
5819;SDS011;2936;47.348;9.640;2022-12-18T08:45:05;54.22;;;20.95;;
5819;SDS011;2936;47.348;9.640;2022-12-18T08:47:33;56.08;;;20.63;;
5819;SDS011;2936;47.348;9.640;2022-12-18T08:50:02;58.90;;;21.90;;
5819;SDS011;2936;47.348;9.640;2022-12-18T08:52:32;55.88;;;21.15;;
5819;SDS011;2936;47.348;9.640;2022-12-18T08:54:59;46.00;;;20.15;;
5819;SDS011;2936;47.348;9.640;2022-12-18T08:57:26;49.97;;;20.73;;
5819;SDS011;2936;47.348;9.640;2022-12-18T08:59:54;45.22;;;19.45;;
5819;SDS011;2936;47.348;9.640;2022-12-18T09:02:21;44.15;;;19.75;;
5819;SDS011;2936;47.348;9.640;2022-12-18T09:04:48;44.83;;;20.00;;
5819;SDS011;2936;47.348;9.640;2022-12-18T09:07:15;49.53;;;20.45;;
5819;SDS011;2936;47.348;9.640;2022-12-18T09:09:44;50.78;;;22.05;;
5819;SDS011;2936;47.348;9.640;2022-12-18T09:12:11;50.35;;;20.35;;
5819;SDS011;2936;47.348;9.640;2022-12-18T09:14:38;47.35;;;20.25;;
5819;SDS011;2936;47.348;9.640;2022-12-18T09:17:05;56.92;;;21.67;;
5819;SDS011;2936;47.348;9.640;2022-12-18T09:19:32;49.13;;;19.52;;
5819;SDS011;2936;47.348;9.640;2022-12-18T09:21:59;50.45;;;22.30;;
5819;SDS011;2936;47.348;9.640;2022-12-18T09:24:27;46.10;;;20.92;;
5819;SDS011;2936;47.348;9.640;2022-12-18T09:26:55;52.92;;;23.55;;
5819;SDS011;2936;47.348;9.640;2022-12-18T09:29:23;52.40;;;22.15;;
5819;SDS011;2936;47.348;9.640;2022-12-18T09:31:50;48.40;;;22.27;;
5819;SDS011;2936;47.348;9.640;2022-12-18T09:34:17;50.58;;;22.85;;
5819;SDS011;2936;47.348;9.640;2022-12-18T09:36:46;44.63;;;18.55;;
5819;SDS011;2936;47.348;9.640;2022-12-18T09:39:13;43.90;;;18.50;;
5819;SDS011;2936;47.348;9.640;2022-12-18T09:41:44;44.63;;;18.92;;
5819;SDS011;2936;47.348;9.640;2022-12-18T09:44:19;46.05;;;20.58;;
5819;SDS011;2936;47.348;9.640;2022-12-18T09:46:47;48.47;;;20.67;;
5819;SDS011;2936;47.348;9.640;2022-12-18T09:49:16;45.75;;;21.25;;
5819;SDS011;2936;47.348;9.640;2022-12-18T09:51:45;51.25;;;21.80;;
5819;SDS011;2936;47.348;9.640;2022-12-18T09:54:15;47.90;;;20.20;;
5819;SDS011;2936;47.348;9.640;2022-12-18T09:56:44;52.63;;;21.38;;
5819;SDS011;2936;47.348;9.640;2022-12-18T09:59:15;48.22;;;22.00;;
5819;SDS011;2936;47.348;9.640;2022-12-18T10:01:46;50.33;;;21.50;;
5819;SDS011;2936;47.348;9.640;2022-12-18T10:04:13;54.85;;;20.67;;
5819;SDS011;2936;47.348;9.640;2022-12-18T10:06:42;49.90;;;22.13;;
5819;SDS011;2936;47.348;9.640;2022-12-18T10:09:13;44.33;;;20.23;;
5819;SDS011;2936;47.348;9.640;2022-12-18T10:11:43;50.83;;;22.10;;
5819;SDS011;2936;47.348;9.640;2022-12-18T10:14:15;52.30;;;22.45;;
5819;SDS011;2936;47.348;9.640;2022-12-18T10:16:45;49.30;;;20.75;;
5819;SDS011;2936;47.348;9.640;2022-12-18T10:19:20;44.83;;;20.90;;
5819;SDS011;2936;47.348;9.640;2022-12-18T10:21:51;50.20;;;21.90;;
5819;SDS011;2936;47.348;9.640;2022-12-18T10:24:22;56.70;;;22.67;;
5819;SDS011;2936;47.348;9.640;2022-12-18T10:26:51;50.15;;;19.77;;
5819;SDS011;2936;47.348;9.640;2022-12-18T10:29:19;46.15;;;20.15;;
5819;SDS011;2936;47.348;9.640;2022-12-18T10:31:46;45.35;;;21.52;;
5819;SDS011;2936;47.348;9.640;2022-12-18T10:34:13;47.60;;;21.40;;
5819;SDS011;2936;47.348;9.640;2022-12-18T10:36:42;47.85;;;23.85;;
5819;SDS011;2936;47.348;9.640;2022-12-18T10:39:16;52.13;;;19.30;;
5819;SDS011;2936;47.348;9.640;2022-12-18T10:41:43;60.95;;;21.80;;
5819;SDS011;2936;47.348;9.640;2022-12-18T10:44:11;48.28;;;22.38;;
5819;SDS011;2936;47.348;9.640;2022-12-18T10:46:39;50.92;;;20.58;;
5819;SDS011;2936;47.348;9.640;2022-12-18T10:49:17;52.08;;;24.00;;
5819;SDS011;2936;47.348;9.640;2022-12-18T10:51:46;50.08;;;21.00;;
5819;SDS011;2936;47.348;9.640;2022-12-18T10:54:14;55.03;;;21.35;;
5819;SDS011;2936;47.348;9.640;2022-12-18T10:56:42;48.40;;;20.98;;
5819;SDS011;2936;47.348;9.640;2022-12-18T10:59:10;43.28;;;20.25;;
5819;SDS011;2936;47.348;9.640;2022-12-18T11:01:47;41.08;;;17.77;;
5819;SDS011;2936;47.348;9.640;2022-12-18T11:04:16;49.58;;;20.13;;
5819;SDS011;2936;47.348;9.640;2022-12-18T11:06:53;37.80;;;17.30;;
5819;SDS011;2936;47.348;9.640;2022-12-18T11:09:21;48.20;;;19.95;;
5819;SDS011;2936;47.348;9.640;2022-12-18T11:11:49;44.60;;;18.85;;
5819;SDS011;2936;47.348;9.640;2022-12-18T11:14:18;42.65;;;17.38;;
5819;SDS011;2936;47.348;9.640;2022-12-18T11:16:46;45.30;;;19.90;;
5819;SDS011;2936;47.348;9.640;2022-12-18T11:19:19;52.72;;;22.52;;
5819;SDS011;2936;47.348;9.640;2022-12-18T11:21:48;40.92;;;20.83;;
5819;SDS011;2936;47.348;9.640;2022-12-18T11:24:19;46.25;;;20.00;;
5819;SDS011;2936;47.348;9.640;2022-12-18T11:26:47;43.60;;;19.80;;
5819;SDS011;2936;47.348;9.640;2022-12-18T11:29:16;41.88;;;19.13;;
5819;SDS011;2936;47.348;9.640;2022-12-18T11:31:44;38.60;;;17.23;;
5819;SDS011;2936;47.348;9.640;2022-12-18T11:34:11;51.25;;;20.40;;
5819;SDS011;2936;47.348;9.640;2022-12-18T11:36:41;42.83;;;19.13;;
5819;SDS011;2936;47.348;9.640;2022-12-18T11:39:10;52.67;;;18.60;;
5819;SDS011;2936;47.348;9.640;2022-12-18T11:41:41;42.95;;;19.63;;
5819;SDS011;2936;47.348;9.640;2022-12-18T11:44:29;37.72;;;18.23;;
5819;SDS011;2936;47.348;9.640;2022-12-18T11:47:00;53.22;;;19.83;;
5819;SDS011;2936;47.348;9.640;2022-12-18T11:49:29;47.88;;;19.58;;
5819;SDS011;2936;47.348;9.640;2022-12-18T11:52:00;40.45;;;19.45;;
5819;SDS011;2936;47.348;9.640;2022-12-18T11:54:28;56.28;;;21.67;;
5819;SDS011;2936;47.348;9.640;2022-12-18T11:56:58;53.20;;;21.10;;
5819;SDS011;2936;47.348;9.640;2022-12-18T11:59:33;52.42;;;22.20;;
5819;SDS011;2936;47.348;9.640;2022-12-18T12:02:09;46.50;;;21.70;;
5819;SDS011;2936;47.348;9.640;2022-12-18T12:04:50;54.28;;;22.55;;
5819;SDS011;2936;47.348;9.640;2022-12-18T12:07:21;58.47;;;23.05;;
5819;SDS011;2936;47.348;9.640;2022-12-18T12:09:52;50.53;;;21.88;;
5819;SDS011;2936;47.348;9.640;2022-12-18T12:12:30;53.78;;;24.27;;
5819;SDS011;2936;47.348;9.640;2022-12-18T12:15:13;53.05;;;23.95;;
5819;SDS011;2936;47.348;9.640;2022-12-18T12:17:45;53.53;;;22.88;;
5819;SDS011;2936;47.348;9.640;2022-12-18T12:20:15;72.05;;;23.35;;
5819;SDS011;2936;47.348;9.640;2022-12-18T12:22:50;56.58;;;23.08;;
5819;SDS011;2936;47.348;9.640;2022-12-18T12:25:23;66.85;;;24.80;;
5819;SDS011;2936;47.348;9.640;2022-12-18T12:27:56;52.60;;;22.38;;
5819;SDS011;2936;47.348;9.640;2022-12-18T12:30:28;48.85;;;22.60;;
5819;SDS011;2936;47.348;9.640;2022-12-18T12:33:01;68.97;;;21.52;;
5819;SDS011;2936;47.348;9.640;2022-12-18T12:35:34;49.58;;;22.10;;
5819;SDS011;2936;47.348;9.640;2022-12-18T12:38:05;47.03;;;20.38;;
5819;SDS011;2936;47.348;9.640;2022-12-18T12:40:35;47.42;;;19.25;;
5819;SDS011;2936;47.348;9.640;2022-12-18T12:43:10;50.67;;;20.75;;
5819;SDS011;2936;47.348;9.640;2022-12-18T12:45:40;65.38;;;24.98;;
5819;SDS011;2936;47.348;9.640;2022-12-18T12:48:10;61.08;;;20.30;;
5819;SDS011;2936;47.348;9.640;2022-12-18T12:50:41;52.33;;;21.08;;
5819;SDS011;2936;47.348;9.640;2022-12-18T12:53:11;50.75;;;21.13;;
5819;SDS011;2936;47.348;9.640;2022-12-18T12:55:42;51.70;;;20.25;;
5819;SDS011;2936;47.348;9.640;2022-12-18T12:58:12;52.92;;;22.42;;
5819;SDS011;2936;47.348;9.640;2022-12-18T13:00:44;49.22;;;20.80;;
5819;SDS011;2936;47.348;9.640;2022-12-18T13:03:15;48.15;;;20.80;;
5819;SDS011;2936;47.348;9.640;2022-12-18T13:05:50;45.33;;;20.15;;
5819;SDS011;2936;47.348;9.640;2022-12-18T13:08:23;49.85;;;20.60;;
5819;SDS011;2936;47.348;9.640;2022-12-18T13:10:51;51.83;;;21.15;;
5819;SDS011;2936;47.348;9.640;2022-12-18T13:13:49;51.92;;;21.63;;
5819;SDS011;2936;47.348;9.640;2022-12-18T13:16:17;52.80;;;24.15;;
5819;SDS011;2936;47.348;9.640;2022-12-18T13:18:48;53.63;;;23.60;;
5819;SDS011;2936;47.348;9.640;2022-12-18T13:21:18;45.45;;;20.77;;
5819;SDS011;2936;47.348;9.640;2022-12-18T13:23:48;54.38;;;20.27;;
5819;SDS011;2936;47.348;9.640;2022-12-18T13:26:28;46.67;;;20.20;;
5819;SDS011;2936;47.348;9.640;2022-12-18T13:29:01;49.20;;;21.98;;
5819;SDS011;2936;47.348;9.640;2022-12-18T13:34:23;54.97;;;21.55;;
5819;SDS011;2936;47.348;9.640;2022-12-18T13:36:51;47.70;;;21.33;;
5819;SDS011;2936;47.348;9.640;2022-12-18T13:39:23;49.40;;;20.55;;
5819;SDS011;2936;47.348;9.640;2022-12-18T13:41:51;41.60;;;19.65;;
5819;SDS011;2936;47.348;9.640;2022-12-18T13:44:26;55.97;;;21.83;;
5819;SDS011;2936;47.348;9.640;2022-12-18T13:46:55;58.53;;;24.02;;
5819;SDS011;2936;47.348;9.640;2022-12-18T13:49:24;53.15;;;22.05;;
5819;SDS011;2936;47.348;9.640;2022-12-18T13:51:52;44.80;;;21.15;;
5819;SDS011;2936;47.348;9.640;2022-12-18T13:54:21;54.65;;;20.70;;
5819;SDS011;2936;47.348;9.640;2022-12-18T13:56:51;42.00;;;20.20;;
5819;SDS011;2936;47.348;9.640;2022-12-18T13:59:18;50.08;;;22.52;;
5819;SDS011;2936;47.348;9.640;2022-12-18T14:01:48;48.20;;;24.35;;
5819;SDS011;2936;47.348;9.640;2022-12-18T14:04:18;60.03;;;22.23;;
5819;SDS011;2936;47.348;9.640;2022-12-18T14:06:46;51.72;;;22.30;;
5819;SDS011;2936;47.348;9.640;2022-12-18T14:09:14;58.47;;;24.40;;
5819;SDS011;2936;47.348;9.640;2022-12-18T14:11:45;63.88;;;23.60;;
5819;SDS011;2936;47.348;9.640;2022-12-18T14:14:13;52.97;;;23.35;;
5819;SDS011;2936;47.348;9.640;2022-12-18T14:16:41;62.17;;;25.10;;
5819;SDS011;2936;47.348;9.640;2022-12-18T14:19:14;59.33;;;21.58;;
5819;SDS011;2936;47.348;9.640;2022-12-18T14:21:45;52.22;;;22.20;;
5819;SDS011;2936;47.348;9.640;2022-12-18T14:24:13;53.33;;;23.10;;
5819;SDS011;2936;47.348;9.640;2022-12-18T14:26:41;53.40;;;21.52;;
5819;SDS011;2936;47.348;9.640;2022-12-18T14:29:18;63.30;;;23.52;;
5819;SDS011;2936;47.348;9.640;2022-12-18T14:31:46;62.05;;;22.85;;
5819;SDS011;2936;47.348;9.640;2022-12-18T14:34:31;57.53;;;21.45;;
5819;SDS011;2936;47.348;9.640;2022-12-18T14:36:59;46.65;;;19.95;;
5819;SDS011;2936;47.348;9.640;2022-12-18T14:39:26;46.00;;;21.50;;
5819;SDS011;2936;47.348;9.640;2022-12-18T14:41:56;59.97;;;25.80;;
5819;SDS011;2936;47.348;9.640;2022-12-18T14:44:23;48.20;;;22.80;;
5819;SDS011;2936;47.348;9.640;2022-12-18T14:46:50;44.65;;;19.88;;
5819;SDS011;2936;47.348;9.640;2022-12-18T14:49:19;44.65;;;20.70;;
5819;SDS011;2936;47.348;9.640;2022-12-18T14:51:49;45.63;;;19.77;;
5819;SDS011;2936;47.348;9.640;2022-12-18T14:54:18;60.15;;;23.00;;
5819;SDS011;2936;47.348;9.640;2022-12-18T14:56:46;51.55;;;23.35;;
5819;SDS011;2936;47.348;9.640;2022-12-18T14:59:14;50.53;;;20.48;;
5819;SDS011;2936;47.348;9.640;2022-12-18T15:01:44;46.05;;;20.48;;
5819;SDS011;2936;47.348;9.640;2022-12-18T15:04:23;45.58;;;21.13;;
5819;SDS011;2936;47.348;9.640;2022-12-18T15:07:04;50.25;;;20.88;;